Terminal Aerodrome Forecast
Issued by NWS

Home | Current Version | Previous Version | Text Only | Print | Product List | Glossary On
Versions: 1 2 3 4 5 6 7 8 9 10 11 12 13 14 15 16 17 18 19 20 21 22 23 24 25
000
FTUS41 KGYX 210904 AAC
TAFLEB
TAF AMD
KLEB 210904Z 2109/2206 04008KT 3SM SHRA BR OVC030
     FM211300 24005KT P6SM BKN025 OVC040
     FM212100 26010KT P6SM SCT040=

USA.gov is the U.S. government's official web portal to all federal, state and local government web resources and services.